Big Sandy, Montana
Current Conditions -  °F | °C
As of 5:53 PM on Tuesday 21 Oct 2014 (Local Time) from KHVR Reporting Station
Light Rain Light Rain  
Wind Chill: 52°   Ceiling: 5500
Heat Index: 52°   Visibility: 10mi
Dew Point: 48°   Wind: 12mph
Humidity: 86%   Direction: 280°W
Pressure: 29.72"   Gusts: NA
Location:  48.18°N, 110.11°W
Report Text: KHVR 212353Z AUTO 28010KT 10SM -RA BKN055 BKN080 11/09 A2972 RMK AO2 SLP074 P0005 60006 T01110089 10161 20111 50024
Loading
Personal Weather Stations






























Interactive Weather Map New forecast layout! Learn more

10-Day Weather Forecast

Advertisements
Track Severe Weather on mobile